Terminal Aerodrome Forecast
Issued by NWS Tuscon, AZ

Home | Current Version | Previous Version | Text Only | Print | Product List | Glossary On
Versions: 1 2 3 4 5 6 7 8 9 10 11 12 13
000
FTUS45 KTWC 211100
TAFTUS
TAF
KTUS 211134Z 2112/2212 13006KT P6SM FEW140
     FM211700 19009KT P6SM FEW140
     FM212100 23013G23KT P6SM SCT140
     FM220300 25010KT P6SM FEW140
     FM220800 15007KT P6SM SKC=

USA.gov is the U.S. government's official web portal to all federal, state and local government web resources and services.